createdAt,value
2022-10-23T00:02:45.619Z,8.64
2022-10-23T00:05:47.782Z,8.57
2022-10-23T00:08:49.859Z,8.62
2022-10-23T00:11:52.747Z,8.63
2022-10-23T00:14:54.554Z,8.65
2022-10-23T00:17:56.345Z,8.67
2022-10-23T00:20:58.277Z,8.67
2022-10-23T00:24:00.323Z,8.70
2022-10-23T00:27:02.302Z,8.68
2022-10-23T00:30:05.772Z,8.70
2022-10-23T00:33:07.595Z,8.62
2022-10-23T00:36:11.826Z,8.64
2022-10-23T00:39:13.731Z,8.60
2022-10-23T00:42:20.346Z,8.65
2022-10-23T00:45:26.631Z,8.66
2022-10-23T00:48:29.750Z,8.61
2022-10-23T00:51:36.242Z,8.59
2022-10-23T00:54:40.930Z,8.60
2022-10-23T00:57:44.631Z,8.59
2022-10-23T01:00:52.995Z,8.60
2022-10-23T01:03:55.076Z,8.55
2022-10-23T01:07:11.466Z,8.54
2022-10-23T01:10:27.220Z,8.53
2022-10-23T01:13:31.935Z,8.52
2022-10-23T01:17:11.248Z,8.52
2022-10-23T01:20:25.786Z,8.55
2022-10-23T01:23:39.694Z,8.56
2022-10-23T01:26:55.870Z,8.53
2022-10-23T01:30:14.200Z,8.59
2022-10-23T01:33:41.490Z,8.59
2022-10-23T01:36:48.353Z,8.60
2022-10-23T01:39:55.005Z,8.63
2022-10-23T01:43:02.376Z,8.64
2022-10-23T01:46:10.646Z,8.67
2022-10-23T01:49:15.376Z,8.69
2022-10-23T01:52:18.512Z,8.68
2022-10-23T01:55:24.830Z,8.65
2022-10-23T01:58:30.002Z,8.65
2022-10-23T02:01:34.843Z,8.69
2022-10-23T02:04:46.141Z,8.67
2022-10-23T02:07:48.452Z,8.65
2022-10-23T02:10:57.825Z,8.63
2022-10-23T02:14:33.868Z,8.64
2022-10-23T02:17:43.875Z,8.66
2022-10-23T02:21:04.799Z,8.68
2022-10-23T02:24:11.814Z,8.71
2022-10-23T02:27:37.510Z,8.71
2022-10-23T02:30:47.798Z,8.74
2022-10-23T02:33:50.180Z,8.73
2022-10-23T02:36:52.374Z,8.75
2022-10-23T02:39:56.654Z,8.77
2022-10-23T02:43:09.640Z,8.82
2022-10-23T02:46:22.653Z,8.84
2022-10-23T02:49:35.031Z,8.82
2022-10-23T02:52:43.366Z,8.87
2022-10-23T02:56:03.302Z,8.89
2022-10-23T02:59:37.536Z,8.88
2022-10-23T03:02:45.625Z,8.91
2022-10-23T03:05:50.403Z,8.90
2022-10-23T03:08:52.214Z,8.96
2022-10-23T03:11:54.304Z,8.97
2022-10-23T03:14:56.131Z,9.00
2022-10-23T03:18:00.025Z,9.00
2022-10-23T03:21:01.923Z,9.06
2022-10-23T03:24:04.051Z,9.05
2022-10-23T03:27:14.929Z,9.13
2022-10-23T03:30:17.410Z,9.15
2022-10-23T03:33:23.716Z,9.22
2022-10-23T03:36:25.663Z,9.24
2022-10-23T03:39:28.535Z,9.26
2022-10-23T03:42:31.522Z,9.27
2022-10-23T03:45:33.450Z,9.29
2022-10-23T03:48:38.282Z,9.30
2022-10-23T03:51:41.869Z,9.31
2022-10-23T03:54:43.717Z,9.28
2022-10-23T03:57:45.899Z,9.25
2022-10-23T04:00:47.745Z,9.28
2022-10-23T04:03:50.261Z,9.29
2022-10-23T04:06:52.561Z,9.32
2022-10-23T04:09:55.609Z,9.33
2022-10-23T04:12:57.486Z,9.38
2022-10-23T04:15:59.348Z,9.39
2022-10-23T04:19:01.186Z,9.38
2022-10-23T04:22:04.657Z,9.37
2022-10-23T04:25:09.161Z,9.39
2022-10-23T04:28:11.011Z,9.43
2022-10-23T04:31:14.830Z,9.43
2022-10-23T04:34:19.048Z,9.47
2022-10-23T04:37:21.047Z,9.45
2022-10-23T04:40:22.974Z,9.49
2022-10-23T04:43:27.921Z,9.49
2022-10-23T04:46:31.406Z,9.56
2022-10-23T04:49:33.973Z,9.58
2022-10-23T04:52:58.222Z,9.63
2022-10-23T04:56:18.677Z,9.66
2022-10-23T04:59:24.317Z,9.67
2022-10-23T05:02:27.766Z,9.69
2022-10-23T05:05:29.919Z,9.73
2022-10-23T05:08:37.807Z,9.77
2022-10-23T05:12:05.763Z,9.78
2022-10-23T05:15:07.692Z,9.81
2022-10-23T05:18:18.997Z,9.85
2022-10-23T05:21:26.515Z,9.86
2022-10-23T05:24:28.572Z,9.89
2022-10-23T05:27:34.313Z,9.94
2022-10-23T05:30:39.021Z,9.91
2022-10-23T05:33:41.333Z,9.91
2022-10-23T05:36:44.313Z,9.95
2022-10-23T05:39:46.589Z,10.02
2022-10-23T05:42:51.634Z,10.07
2022-10-23T05:46:04.084Z,10.07
2022-10-23T05:49:30.326Z,10.07
2022-10-23T05:52:50.520Z,10.13
2022-10-23T05:56:23.430Z,10.14
2022-10-23T05:59:35.508Z,10.17
2022-10-23T06:03:15.178Z,10.24
2022-10-23T06:06:20.153Z,10.30
2022-10-23T06:09:24.119Z,10.31
2022-10-23T06:12:32.927Z,10.37
2022-10-23T06:15:35.191Z,10.44
2022-10-23T06:18:43.545Z,10.47
2022-10-23T06:21:49.248Z,10.55
2022-10-23T06:24:51.950Z,10.55
2022-10-23T06:27:59.382Z,10.59
2022-10-23T06:31:11.023Z,10.61
2022-10-23T06:34:13.443Z,10.60
2022-10-23T06:37:16.001Z,10.62
2022-10-23T06:40:26.186Z,10.61
2022-10-23T06:43:42.698Z,10.59
2022-10-23T06:47:04.522Z,10.66
2022-10-23T06:50:25.612Z,10.67
2022-10-23T06:53:28.269Z,10.68
2022-10-23T06:56:40.455Z,10.66
2022-10-23T06:59:44.132Z,10.66
2022-10-23T07:02:47.888Z,10.73
2022-10-23T07:05:49.724Z,10.81
2022-10-23T07:08:54.678Z,10.83
2022-10-23T07:12:16.821Z,10.78
2022-10-23T07:15:24.424Z,10.82
2022-10-23T07:18:27.527Z,10.87
2022-10-23T07:21:56.825Z,10.93
2022-10-23T07:25:13.279Z,10.98
2022-10-23T07:28:15.941Z,10.99
2022-10-23T07:31:18.235Z,10.99
2022-10-23T07:34:38.623Z,11.03
2022-10-23T07:37:54.825Z,11.08
2022-10-23T07:40:58.396Z,11.09
2022-10-23T07:44:00.328Z,11.08
2022-10-23T07:47:02.310Z,11.11
2022-10-23T07:50:04.492Z,11.13
2022-10-23T07:53:06.636Z,11.16
2022-10-23T07:56:22.422Z,11.18
2022-10-23T07:59:43.125Z,11.20
2022-10-23T08:02:46.313Z,11.21
2022-10-23T08:05:48.267Z,11.20
2022-10-23T08:08:50.296Z,11.17
2022-10-23T08:11:52.938Z,11.13
2022-10-23T08:14:57.048Z,11.15
2022-10-23T08:18:04.692Z,11.10
2022-10-23T08:21:14.504Z,11.12
2022-10-23T08:24:16.588Z,11.12
2022-10-23T08:27:20.773Z,11.10
2022-10-23T08:30:24.431Z,11.08
2022-10-23T08:33:26.481Z,11.11
2022-10-23T08:36:29.983Z,11.09
2022-10-23T08:39:32.048Z,11.10
2022-10-23T08:43:17.641Z,11.10
2022-10-23T08:46:40.556Z,11.11
2022-10-23T08:50:06.176Z,11.14
2022-10-23T08:53:17.112Z,11.16
2022-10-23T08:56:27.396Z,11.18
2022-10-23T08:59:48.605Z,11.22
2022-10-23T09:02:52.818Z,11.22
2022-10-23T09:06:41.596Z,11.19
2022-10-23T09:10:11.023Z,11.26
2022-10-23T09:13:34.064Z,11.28
2022-10-23T09:16:54.405Z,11.32
2022-10-23T09:20:25.588Z,11.25
2022-10-23T09:23:27.497Z,11.33
2022-10-23T09:26:29.476Z,11.34
2022-10-23T09:29:35.968Z,11.39
2022-10-23T09:32:38.785Z,11.42
2022-10-23T09:36:02.202Z,11.41
2022-10-23T09:39:04.249Z,11.43
2022-10-23T09:42:26.372Z,11.42
2022-10-23T09:45:34.526Z,11.43
2022-10-23T09:48:43.825Z,11.44
2022-10-23T09:51:56.813Z,11.46
2022-10-23T09:55:00.530Z,11.48
2022-10-23T09:58:02.573Z,11.48
2022-10-23T10:01:05.566Z,11.49
2022-10-23T10:04:33.697Z,11.48
2022-10-23T10:07:36.771Z,11.46
2022-10-23T10:10:47.976Z,11.48
2022-10-23T10:13:55.882Z,11.48
2022-10-23T10:17:27.108Z,11.45
2022-10-23T10:20:40.736Z,11.46
2022-10-23T10:24:12.929Z,11.50
2022-10-23T10:27:20.538Z,11.48
2022-10-23T10:30:24.254Z,11.53
2022-10-23T10:33:54.077Z,11.49
2022-10-23T10:36:59.464Z,11.53
2022-10-23T10:40:07.957Z,11.58
2022-10-23T10:43:28.401Z,11.57
2022-10-23T10:50:12.621Z,11.67
2022-10-23T10:53:41.811Z,11.64
2022-10-23T10:56:45.991Z,11.69
2022-10-23T10:59:53.147Z,11.69
2022-10-23T11:03:17.921Z,11.67
2022-10-23T11:06:23.893Z,11.67
2022-10-23T11:09:30.723Z,11.65
2022-10-23T11:12:33.925Z,11.65
2022-10-23T11:15:44.843Z,11.70
2022-10-23T11:19:14.104Z,11.64
2022-10-23T11:22:27.956Z,11.68
2022-10-23T11:25:55.808Z,11.65
2022-10-23T11:29:35.493Z,11.67
2022-10-23T11:32:49.779Z,11.62
2022-10-23T11:35:55.476Z,11.65
2022-10-23T11:39:15.965Z,11.68
2022-10-23T11:42:32.181Z,11.60
2022-10-23T11:45:40.734Z,11.67
2022-10-23T11:48:44.558Z,11.72
2022-10-23T11:51:46.727Z,11.66
2022-10-23T11:54:48.742Z,11.72
2022-10-23T11:58:09.178Z,11.72
2022-10-23T12:01:34.803Z,11.74
2022-10-23T12:04:46.551Z,11.76
2022-10-23T12:07:56.066Z,11.72
2022-10-23T12:10:58.221Z,11.72
2022-10-23T12:14:00.276Z,11.68
2022-10-23T12:17:03.657Z,11.68
2022-10-23T12:20:08.766Z,11.72
2022-10-23T12:23:58.782Z,11.73
2022-10-23T12:27:14.535Z,11.65
2022-10-23T12:30:23.528Z,11.64
2022-10-23T12:33:46.762Z,11.66
2022-10-23T12:36:54.971Z,11.52
2022-10-23T12:39:59.576Z,11.53
2022-10-23T12:43:02.063Z,11.57
2022-10-23T12:46:18.381Z,11.54
2022-10-23T12:49:23.736Z,11.50
2022-10-23T12:52:25.701Z,11.50
2022-10-23T12:55:35.779Z,11.38
2022-10-23T12:58:38.554Z,11.35
2022-10-23T13:01:43.334Z,11.25
2022-10-23T13:04:46.008Z,11.21
2022-10-23T13:07:49.209Z,11.10
2022-10-23T13:10:58.020Z,10.96
2022-10-23T13:14:01.826Z,10.98
2022-10-23T13:17:06.487Z,10.99
2022-10-23T13:20:18.673Z,10.99
2022-10-23T13:23:34.729Z,10.98
2022-10-23T13:26:45.683Z,10.96
2022-10-23T13:29:47.641Z,10.93
2022-10-23T13:32:51.474Z,10.93
2022-10-23T13:36:06.586Z,10.91
2022-10-23T13:39:12.142Z,10.89
2022-10-23T13:42:15.326Z,10.89
2022-10-23T13:45:21.548Z,10.89
2022-10-23T13:48:23.649Z,10.87
2022-10-23T13:51:31.121Z,10.86
2022-10-23T13:54:34.679Z,10.87
2022-10-23T13:57:39.236Z,10.88
2022-10-23T14:00:43.421Z,10.85
2022-10-23T14:03:45.419Z,10.87
2022-10-23T14:06:48.194Z,10.94
2022-10-23T14:09:50.667Z,10.93
2022-10-23T14:12:54.969Z,10.99
2022-10-23T14:15:56.992Z,11.00
2022-10-23T14:18:58.929Z,10.97
2022-10-23T14:22:00.944Z,10.97
2022-10-23T14:25:02.941Z,10.98
2022-10-23T14:28:06.710Z,11.00
2022-10-23T14:31:11.934Z,10.99
2022-10-23T14:34:13.924Z,11.00
2022-10-23T14:37:16.290Z,11.00
2022-10-23T14:40:18.234Z,10.96
2022-10-23T14:43:21.784Z,11.01
2022-10-23T14:46:24.765Z,11.02
2022-10-23T14:49:28.079Z,11.02
2022-10-23T14:52:29.992Z,11.03
2022-10-23T14:55:32.002Z,11.04
2022-10-23T14:58:34.778Z,11.06
2022-10-23T15:01:45.071Z,11.06
2022-10-23T15:04:49.929Z,11.05
2022-10-23T15:07:51.792Z,11.07
2022-10-23T15:10:54.208Z,11.08
2022-10-23T15:13:56.465Z,11.10
2022-10-23T15:16:59.512Z,11.10
2022-10-23T15:20:01.575Z,11.12
2022-10-23T15:23:03.884Z,11.12
2022-10-23T15:26:09.641Z,11.12
2022-10-23T15:29:12.365Z,11.12
2022-10-23T15:32:16.490Z,11.13
2022-10-23T15:35:20.371Z,11.13
2022-10-23T15:38:23.538Z,11.14
2022-10-23T15:41:31.264Z,11.15
2022-10-23T15:44:33.833Z,11.15
2022-10-23T15:47:35.766Z,11.14
2022-10-23T15:50:40.608Z,11.14
2022-10-23T15:53:45.774Z,11.14
2022-10-23T15:56:53.603Z,11.13
2022-10-23T16:00:01.268Z,11.15
2022-10-23T16:03:03.482Z,11.12
2022-10-23T16:06:11.819Z,11.09
2022-10-23T16:09:15.002Z,11.11
2022-10-23T16:27:11.445Z,11.03
2022-10-23T16:30:16.416Z,11.05
2022-10-23T16:33:18.595Z,11.06
2022-10-23T16:36:21.416Z,11.07
2022-10-23T16:39:43.211Z,11.07
2022-10-23T16:43:03.796Z,11.06
2022-10-23T16:46:30.705Z,11.04
2022-10-23T16:49:35.936Z,11.03
2022-10-23T16:52:38.898Z,11.04
2022-10-23T16:55:41.509Z,11.06
2022-10-23T16:58:52.739Z,11.08
2022-10-23T17:01:55.339Z,11.08
2022-10-23T17:05:05.147Z,11.08
2022-10-23T17:08:11.142Z,11.08
2022-10-23T17:11:16.477Z,11.09
2022-10-23T17:14:21.293Z,11.08
2022-10-23T17:17:25.875Z,11.08
2022-10-23T17:20:31.150Z,11.08
2022-10-23T17:23:36.650Z,11.08
2022-10-23T17:26:41.570Z,11.06
2022-10-23T17:34:58.094Z,11.01
2022-10-23T17:38:00.142Z,11.01
2022-10-23T17:41:02.179Z,11.04
2022-10-23T17:44:04.386Z,11.04
2022-10-23T17:47:06.280Z,11.02
2022-10-23T17:50:09.692Z,11.02
2022-10-23T17:53:12.069Z,11.03
2022-10-23T17:56:19.160Z,11.03
2022-10-23T17:59:21.480Z,11.01
2022-10-23T18:02:23.814Z,10.97
2022-10-23T18:05:26.252Z,10.92
2022-10-23T18:08:28.156Z,10.95
2022-10-23T18:11:35.653Z,10.93
2022-10-23T18:14:38.305Z,10.92
2022-10-23T18:17:40.177Z,10.92
2022-10-23T18:20:42.240Z,10.91
2022-10-23T18:23:44.621Z,10.92
2022-10-23T18:26:48.331Z,10.94
2022-10-23T18:29:51.036Z,10.96
2022-10-23T18:32:52.803Z,10.95
2022-10-23T18:35:54.824Z,10.97
2022-10-23T18:38:56.679Z,10.95
2022-10-23T18:41:59.058Z,10.96
2022-10-23T18:45:01.040Z,10.98
2022-10-23T18:48:04.028Z,10.97
2022-10-23T18:51:20.696Z,10.99
2022-10-23T18:54:22.823Z,10.96
2022-10-23T18:57:25.094Z,10.95
2022-10-23T19:00:26.908Z,10.95
2022-10-23T19:03:31.588Z,10.93
2022-10-23T19:06:36.403Z,10.94
2022-10-23T19:09:40.355Z,10.87
2022-10-23T19:12:43.190Z,10.92
2022-10-23T19:15:45.306Z,10.93
2022-10-23T19:18:55.363Z,10.89
2022-10-23T19:21:57.869Z,10.91
2022-10-23T19:25:11.307Z,10.79
2022-10-23T19:28:13.270Z,10.81
2022-10-23T19:31:15.217Z,10.85
2022-10-23T19:34:20.172Z,10.79
2022-10-23T19:37:23.569Z,10.81
2022-10-23T19:40:25.679Z,10.72
2022-10-23T19:43:27.585Z,10.78
2022-10-23T19:46:29.478Z,10.82
2022-10-23T19:49:31.388Z,10.82
2022-10-23T19:52:34.722Z,10.79
2022-10-23T19:55:36.643Z,10.75
2022-10-23T19:58:38.822Z,10.81
2022-10-23T20:01:43.885Z,10.78
2022-10-23T20:04:57.419Z,10.75
2022-10-23T20:07:59.319Z,10.65
2022-10-23T20:11:01.129Z,10.71
2022-10-23T20:14:03.437Z,10.65
2022-10-23T20:17:05.323Z,10.58
2022-10-23T20:20:07.533Z,10.68
2022-10-23T20:23:09.652Z,10.74
2022-10-23T20:26:16.171Z,10.70
2022-10-23T20:29:18.418Z,10.72
2022-10-23T20:32:20.214Z,10.57
2022-10-23T20:35:22.036Z,10.58
2022-10-23T20:38:23.919Z,10.66
2022-10-23T20:47:15.497Z,10.54
2022-10-23T20:50:17.414Z,10.52
2022-10-23T20:53:19.237Z,10.59
2022-10-23T20:56:32.724Z,10.55
2022-10-23T20:59:35.354Z,10.60
2022-10-23T21:02:37.184Z,10.38
2022-10-23T21:05:39.104Z,10.49
2022-10-23T21:08:41.985Z,10.49
2022-10-23T21:11:43.610Z,10.44
2022-10-23T21:14:45.426Z,10.45
2022-10-23T21:17:50.308Z,10.45
2022-10-23T21:20:54.119Z,10.54
2022-10-23T21:23:59.517Z,10.46
2022-10-23T21:27:01.518Z,10.36
2022-10-23T21:30:05.449Z,10.35
2022-10-23T21:33:07.723Z,10.37
2022-10-23T21:36:17.264Z,10.42
2022-10-23T21:39:19.440Z,10.32
2022-10-23T21:42:21.324Z,10.41
2022-10-23T21:45:23.248Z,10.40
2022-10-23T21:48:25.125Z,10.40
2022-10-23T21:51:37.170Z,10.40
2022-10-23T21:54:38.943Z,10.41
2022-10-23T21:57:40.751Z,10.32
2022-10-23T22:00:42.555Z,10.44
2022-10-23T22:03:44.402Z,10.40
2022-10-23T22:06:48.250Z,10.35
2022-10-23T22:09:50.064Z,10.12
2022-10-23T22:12:51.868Z,10.27
2022-10-23T22:15:53.782Z,10.22
2022-10-23T22:18:55.694Z,10.20
2022-10-23T22:21:57.698Z,10.15
2022-10-23T22:24:59.925Z,9.99
2022-10-23T22:28:01.721Z,9.95
2022-10-23T22:31:03.504Z,9.94
2022-10-23T22:34:18.683Z,9.87
2022-10-23T22:37:28.895Z,10.01
2022-10-23T22:40:30.697Z,10.01
2022-10-23T22:43:32.558Z,9.95
2022-10-23T22:46:34.463Z,9.94
2022-10-23T22:49:36.347Z,10.03
2022-10-23T22:52:38.211Z,9.96
2022-10-23T22:55:43.233Z,9.96
2022-10-23T22:58:46.050Z,9.97
2022-10-23T23:01:49.127Z,9.90
2022-10-23T23:04:50.941Z,9.85
2022-10-23T23:07:52.724Z,9.98
2022-10-23T23:10:56.509Z,9.92
2022-10-23T23:13:58.325Z,9.86
2022-10-23T23:17:00.197Z,9.79
2022-10-23T23:20:02.014Z,9.94
2022-10-23T23:23:03.912Z,9.93
2022-10-23T23:26:07.338Z,9.89
2022-10-23T23:29:09.139Z,9.76
2022-10-23T23:32:11.293Z,9.82
2022-10-23T23:35:13.621Z,9.73
2022-10-23T23:38:15.415Z,9.72
2022-10-23T23:41:19.330Z,9.68
2022-10-23T23:44:21.073Z,9.55
2022-10-23T23:47:23.044Z,9.60
2022-10-23T23:50:25.006Z,9.71
2022-10-23T23:53:26.848Z,9.67
2022-10-23T23:56:28.771Z,9.57
2022-10-23T23:59:30.535Z,9.55
